You are not logged in, Click here to log in
機場資訊:HECA Welcome to Taiwan Airways 台灣虛擬航空
ICAO: HECA Country: 埃及首都開羅市中心東北約15公里
Latitude: 30.1219 Longitude: 31.4056
Total Arrivals: 9 Total Departures: 9
Latest Arrival: FS69 (LTFM-HECA)ALAN. LIU Latest Departure: FS97 (HECA-LOWW)ALAN. LIU
Scenery:
METAR : HECA 141800Z 34008KT 6000 NSC 29/18 Q1014 NOSIG

開羅國際機場CAI